sensor_id;sensor_type;location;lat;lon;timestamp;pressure;altitude;pressure_sealevel;temperature
61189;BMP280;47054;39.716;2.904;2023-02-26T00:01:43;98959.94;;;17.21
61189;BMP280;47054;39.716;2.904;2023-02-26T00:04:27;98959.19;;;17.21
61189;BMP280;47054;39.716;2.904;2023-02-26T00:07:12;98951.91;;;17.18
61189;BMP280;47054;39.716;2.904;2023-02-26T00:09:57;98958.41;;;17.20
61189;BMP280;47054;39.716;2.904;2023-02-26T00:12:42;98957.25;;;17.21
61189;BMP280;47054;39.716;2.904;2023-02-26T00:15:27;98958.41;;;17.20
61189;BMP280;47054;39.716;2.904;2023-02-26T00:18:14;98954.97;;;17.20
61189;BMP280;47054;39.716;2.904;2023-02-26T00:20:59;98959.19;;;17.21
61189;BMP280;47054;39.716;2.904;2023-02-26T00:23:44;98958.41;;;17.20
61189;BMP280;47054;39.716;2.904;2023-02-26T00:26:30;98961.09;;;17.20
61189;BMP280;47054;39.716;2.904;2023-02-26T00:29:15;98961.84;;;17.21
61189;BMP280;47054;39.716;2.904;2023-02-26T00:32:00;98969.88;;;17.21
61189;BMP280;47054;39.716;2.904;2023-02-26T00:34:46;98962.19;;;17.23
61189;BMP280;47054;39.716;2.904;2023-02-26T00:40:46;98960.69;;;17.18
61189;BMP280;47054;39.716;2.904;2023-02-26T00:43:31;98964.53;;;17.21
61189;BMP280;47054;39.716;2.904;2023-02-26T00:46:41;98968.72;;;17.22
61189;BMP280;47054;39.716;2.904;2023-02-26T00:55:24;98975.59;;;17.23
61189;BMP280;47054;39.716;2.904;2023-02-26T00:58:09;98980.19;;;17.22
61189;BMP280;47054;39.716;2.904;2023-02-26T01:00:53;98978.25;;;17.23
61189;BMP280;47054;39.716;2.904;2023-02-26T01:03:38;98979.81;;;17.24
61189;BMP280;47054;39.716;2.904;2023-02-26T01:06:27;98974.81;;;17.26
61189;BMP280;47054;39.716;2.904;2023-02-26T01:12:10;98981.72;;;17.27
61189;BMP280;47054;39.716;2.904;2023-02-26T01:14:56;98977.50;;;17.26
61189;BMP280;47054;39.716;2.904;2023-02-26T01:17:55;98962.56;;;17.28
61189;BMP280;47054;39.716;2.904;2023-02-26T01:20:45;98974.09;;;17.18
61189;BMP280;47054;39.716;2.904;2023-02-26T01:23:34;98956.09;;;17.22
61189;BMP280;47054;39.716;2.904;2023-02-26T01:26:23;98953.00;;;17.24
61189;BMP280;47054;39.716;2.904;2023-02-26T01:29:10;98956.84;;;17.23
61189;BMP280;47054;39.716;2.904;2023-02-26T01:32:24;98948.78;;;17.26
61189;BMP280;47054;39.716;2.904;2023-02-26T01:35:47;98944.97;;;17.24
61189;BMP280;47054;39.716;2.904;2023-02-26T01:38:52;98949.94;;;17.25
61189;BMP280;47054;39.716;2.904;2023-02-26T01:41:46;98937.31;;;17.26
61189;BMP280;47054;39.716;2.904;2023-02-26T01:44:38;98937.72;;;17.24
61189;BMP280;47054;39.716;2.904;2023-02-26T01:47:32;98939.63;;;17.27
61189;BMP280;47054;39.716;2.904;2023-02-26T01:50:22;98938.09;;;17.26
61189;BMP280;47054;39.716;2.904;2023-02-26T01:53:25;98929.28;;;17.26
61189;BMP280;47054;39.716;2.904;2023-02-26T01:56:15;98929.66;;;17.28
61189;BMP280;47054;39.716;2.904;2023-02-26T01:59:02;98924.69;;;17.26
61189;BMP280;47054;39.716;2.904;2023-02-26T02:01:51;98906.75;;;17.20
61189;BMP280;47054;39.716;2.904;2023-02-26T02:04:38;98915.88;;;17.26
61189;BMP280;47054;39.716;2.904;2023-02-26T02:07:23;98900.22;;;17.24
61189;BMP280;47054;39.716;2.904;2023-02-26T02:10:09;98903.25;;;17.26
61189;BMP280;47054;39.716;2.904;2023-02-26T02:26:18;98902.91;;;17.24
61189;BMP280;47054;39.716;2.904;2023-02-26T02:35:37;98889.53;;;17.21
61189;BMP280;47054;39.716;2.904;2023-02-26T02:38:30;98892.22;;;17.21
61189;BMP280;47054;39.716;2.904;2023-02-26T02:41:39;98880.75;;;17.20
61189;BMP280;47054;39.716;2.904;2023-02-26T02:44:28;98877.28;;;17.20
61189;BMP280;47054;39.716;2.904;2023-02-26T02:47:17;98875.38;;;17.20
61189;BMP280;47054;39.716;2.904;2023-02-26T02:50:08;98875.38;;;17.20
61189;BMP280;47054;39.716;2.904;2023-02-26T02:53:23;98879.97;;;17.20
61189;BMP280;47054;39.716;2.904;2023-02-26T02:59:21;98879.19;;;17.19
61189;BMP280;47054;39.716;2.904;2023-02-26T03:02:12;98874.25;;;17.18
61189;BMP280;47054;39.716;2.904;2023-02-26T03:04:57;98864.72;;;17.17
61189;BMP280;47054;39.716;2.904;2023-02-26T03:08:09;98859.34;;;17.17
61189;BMP280;47054;39.716;2.904;2023-02-26T03:10:54;98864.38;;;17.07
61189;BMP280;47054;39.716;2.904;2023-02-26T03:13:40;98865.91;;;17.08
61189;BMP280;47054;39.716;2.904;2023-02-26T03:25:57;98865.53;;;17.10
61189;BMP280;47054;39.716;2.904;2023-02-26T03:28:58;98859.03;;;17.11
61189;BMP280;47054;39.716;2.904;2023-02-26T03:31:57;98851.00;;;17.11
61189;BMP280;47054;39.716;2.904;2023-02-26T03:34:51;98863.63;;;17.11
61189;BMP280;47054;39.716;2.904;2023-02-26T03:37:49;98857.88;;;17.08
61189;BMP280;47054;39.716;2.904;2023-02-26T03:40:42;98850.22;;;17.11
61189;BMP280;47054;39.716;2.904;2023-02-26T03:43:50;98859.03;;;17.11
61189;BMP280;47054;39.716;2.904;2023-02-26T03:46:42;98859.03;;;17.07
61189;BMP280;47054;39.716;2.904;2023-02-26T03:49:32;98849.06;;;17.08
61189;BMP280;47054;39.716;2.904;2023-02-26T03:52:21;98862.44;;;17.08
61189;BMP280;47054;39.716;2.904;2023-02-26T03:55:38;98845.28;;;17.05
61189;BMP280;47054;39.716;2.904;2023-02-26T03:58:54;98857.53;;;17.06
61189;BMP280;47054;39.716;2.904;2023-02-26T04:02:06;98859.44;;;17.06
61189;BMP280;47054;39.716;2.904;2023-02-26T04:05:11;98843.75;;;17.04
61189;BMP280;47054;39.716;2.904;2023-02-26T04:07:57;98848.38;;;17.04
61189;BMP280;47054;39.716;2.904;2023-02-26T04:10:46;98844.50;;;17.05
61189;BMP280;47054;39.716;2.904;2023-02-26T04:13:36;98836.88;;;17.03
61189;BMP280;47054;39.716;2.904;2023-02-26T04:16:21;98843.00;;;17.04
61189;BMP280;47054;39.716;2.904;2023-02-26T04:19:08;98845.69;;;17.04
61189;BMP280;47054;39.716;2.904;2023-02-26T04:21:53;98836.13;;;17.03
61189;BMP280;47054;39.716;2.904;2023-02-26T04:24:38;98844.91;;;17.03
61189;BMP280;47054;39.716;2.904;2023-02-26T04:27:22;98832.38;;;16.97
61189;BMP280;47054;39.716;2.904;2023-02-26T04:30:08;98843.78;;;17.01
61189;BMP280;47054;39.716;2.904;2023-02-26T04:32:53;98840.72;;;17.02
61189;BMP280;47054;39.716;2.904;2023-02-26T04:35:38;98841.88;;;17.01
61189;BMP280;47054;39.716;2.904;2023-02-26T04:38:22;98840.72;;;17.02
61189;BMP280;47054;39.716;2.904;2023-02-26T04:41:07;98830.84;;;16.96
61189;BMP280;47054;39.716;2.904;2023-02-26T04:43:52;98844.97;;;17.00
61189;BMP280;47054;39.716;2.904;2023-02-26T04:46:43;98839.59;;;17.00
61189;BMP280;47054;39.716;2.904;2023-02-26T04:49:28;98842.28;;;17.00
61189;BMP280;47054;39.716;2.904;2023-02-26T04:52:13;98843.41;;;16.99
61189;BMP280;47054;39.716;2.904;2023-02-26T04:54:58;98842.69;;;16.95
61189;BMP280;47054;39.716;2.904;2023-02-26T04:57:43;98844.56;;;16.98
61189;BMP280;47054;39.716;2.904;2023-02-26T05:00:28;98848.00;;;16.98
61189;BMP280;47054;39.716;2.904;2023-02-26T05:03:13;98847.25;;;16.98
61189;BMP280;47054;39.716;2.904;2023-02-26T05:05:58;98841.88;;;16.98
61189;BMP280;47054;39.716;2.904;2023-02-26T05:08:43;98845.75;;;16.97
61189;BMP280;47054;39.716;2.904;2023-02-26T05:11:28;98833.13;;;16.94
61189;BMP280;47054;39.716;2.904;2023-02-26T05:14:12;98831.25;;;16.91
61189;BMP280;47054;39.716;2.904;2023-02-26T05:16:58;98838.91;;;16.89
61189;BMP280;47054;39.716;2.904;2023-02-26T05:19:43;98839.63;;;16.93
61189;BMP280;47054;39.716;2.904;2023-02-26T05:22:28;98841.91;;;16.94
61189;BMP280;47054;39.716;2.904;2023-02-26T05:25:14;98837.72;;;16.93
61189;BMP280;47054;39.716;2.904;2023-02-26T05:27:59;98843.09;;;16.93
61189;BMP280;47054;39.716;2.904;2023-02-26T05:30:43;98831.28;;;16.87
61189;BMP280;47054;39.716;2.904;2023-02-26T05:33:28;98839.63;;;16.93
61189;BMP280;47054;39.716;2.904;2023-02-26T05:36:12;98839.28;;;16.91
61189;BMP280;47054;39.716;2.904;2023-02-26T05:38:57;98833.56;;;16.92
61189;BMP280;47054;39.716;2.904;2023-02-26T05:41:41;98827.81;;;16.90
61189;BMP280;47054;39.716;2.904;2023-02-26T05:44:26;98834.69;;;16.91
61189;BMP280;47054;39.716;2.904;2023-02-26T05:47:10;98843.88;;;16.90
61189;BMP280;47054;39.716;2.904;2023-02-26T05:49:55;98838.50;;;16.90
61189;BMP280;47054;39.716;2.904;2023-02-26T05:52:39;98845.03;;;16.89
61189;BMP280;47054;39.716;2.904;2023-02-26T05:55:24;98847.34;;;16.87
61189;BMP280;47054;39.716;2.904;2023-02-26T05:58:09;98847.72;;;16.89
61189;BMP280;47054;39.716;2.904;2023-02-26T06:00:53;98851.53;;;16.88
61189;BMP280;47054;39.716;2.904;2023-02-26T06:03:38;98848.50;;;16.86
61189;BMP280;47054;39.716;2.904;2023-02-26T06:06:27;98850.03;;;16.87
61189;BMP280;47054;39.716;2.904;2023-02-26T06:09:11;98848.53;;;16.83
61189;BMP280;47054;39.716;2.904;2023-02-26T06:11:56;98851.19;;;16.86
61189;BMP280;47054;39.716;2.904;2023-02-26T06:14:41;98849.66;;;16.85
61189;BMP280;47054;39.716;2.904;2023-02-26T06:17:26;98851.56;;;16.85
61189;BMP280;47054;39.716;2.904;2023-02-26T06:20:11;98846.22;;;16.85
61189;BMP280;47054;39.716;2.904;2023-02-26T06:22:56;98845.44;;;16.84
61189;BMP280;47054;39.716;2.904;2023-02-26T06:25:41;98845.06;;;16.82
61189;BMP280;47054;39.716;2.904;2023-02-26T06:28:25;98845.91;;;16.76
61189;BMP280;47054;39.716;2.904;2023-02-26T06:31:10;98855.78;;;16.82
61189;BMP280;47054;39.716;2.904;2023-02-26T06:33:55;98855.78;;;16.82
61189;BMP280;47054;39.716;2.904;2023-02-26T06:36:39;98859.22;;;16.83
61189;BMP280;47054;39.716;2.904;2023-02-26T06:39:23;98852.78;;;16.77
61189;BMP280;47054;39.716;2.904;2023-02-26T06:42:08;98865.75;;;16.82
61189;BMP280;47054;39.716;2.904;2023-02-26T06:44:53;98864.22;;;16.81
61189;BMP280;47054;39.716;2.904;2023-02-26T06:47:37;98863.84;;;16.79
61189;BMP280;47054;39.716;2.904;2023-02-26T06:50:22;98869.56;;;16.81
61189;BMP280;47054;39.716;2.904;2023-02-26T06:53:07;98864.22;;;16.77
61189;BMP280;47054;39.716;2.904;2023-02-26T06:55:52;98863.09;;;16.75
61189;BMP280;47054;39.716;2.904;2023-02-26T06:58:37;98875.69;;;16.78
61189;BMP280;47054;39.716;2.904;2023-02-26T07:01:22;98871.13;;;16.75
61189;BMP280;47054;39.716;2.904;2023-02-26T07:04:07;98878.78;;;16.76
61189;BMP280;47054;39.716;2.904;2023-02-26T07:06:52;98872.66;;;16.76
61189;BMP280;47054;39.716;2.904;2023-02-26T07:09:36;98868.47;;;16.75
61189;BMP280;47054;39.716;2.904;2023-02-26T07:12:21;98865.78;;;16.75
61189;BMP280;47054;39.716;2.904;2023-02-26T07:15:06;98871.50;;;16.73
61189;BMP280;47054;39.716;2.904;2023-02-26T07:17:51;98873.44;;;16.73
61189;BMP280;47054;39.716;2.904;2023-02-26T07:20:36;98876.47;;;16.75
61189;BMP280;47054;39.716;2.904;2023-02-26T07:23:21;98863.91;;;16.72
61189;BMP280;47054;39.716;2.904;2023-02-26T07:26:05;98872.28;;;16.74
61189;BMP280;47054;39.716;2.904;2023-02-26T07:28:50;98866.91;;;16.74
61189;BMP280;47054;39.716;2.904;2023-02-26T07:31:35;98865.81;;;16.71
61189;BMP280;47054;39.716;2.904;2023-02-26T07:34:20;98879.53;;;16.73
61189;BMP280;47054;39.716;2.904;2023-02-26T07:37:04;98873.44;;;16.73
61189;BMP280;47054;39.716;2.904;2023-02-26T07:39:49;98879.53;;;16.73
61189;BMP280;47054;39.716;2.904;2023-02-26T07:42:34;98866.59;;;16.72
61189;BMP280;47054;39.716;2.904;2023-02-26T07:45:18;98865.03;;;16.67
61189;BMP280;47054;39.716;2.904;2023-02-26T07:48:05;98869.25;;;16.72
61189;BMP280;47054;39.716;2.904;2023-02-26T07:50:51;98871.16;;;16.71
61189;BMP280;47054;39.716;2.904;2023-02-26T07:53:36;98871.94;;;16.72
61189;BMP280;47054;39.716;2.904;2023-02-26T07:56:21;98863.91;;;16.68
61189;BMP280;47054;39.716;2.904;2023-02-26T07:59:06;98871.53;;;16.70
61189;BMP280;47054;39.716;2.904;2023-02-26T08:01:51;98876.88;;;16.70
61189;BMP280;47054;39.716;2.904;2023-02-26T08:04:35;98879.56;;;16.70
61189;BMP280;47054;39.716;2.904;2023-02-26T08:07:20;98871.97;;;16.65
61189;BMP280;47054;39.716;2.904;2023-02-26T08:10:04;98878.81;;;16.69
61189;BMP280;47054;39.716;2.904;2023-02-26T08:12:49;98874.22;;;16.70
61189;BMP280;47054;39.716;2.904;2023-02-26T08:15:34;98882.25;;;16.70
61189;BMP280;47054;39.716;2.904;2023-02-26T08:18:18;98878.06;;;16.69
61189;BMP280;47054;39.716;2.904;2023-02-26T08:21:04;98878.06;;;16.69
61189;BMP280;47054;39.716;2.904;2023-02-26T08:23:48;98892.56;;;16.68
61189;BMP280;47054;39.716;2.904;2023-02-26T08:26:36;98868.50;;;16.68
61189;BMP280;47054;39.716;2.904;2023-02-26T08:29:21;98873.50;;;16.66
61189;BMP280;47054;39.716;2.904;2023-02-26T08:32:06;98874.66;;;16.65
61189;BMP280;47054;39.716;2.904;2023-02-26T08:34:50;98877.69;;;16.67
61189;BMP280;47054;39.716;2.904;2023-02-26T08:37:35;98873.50;;;16.62
61189;BMP280;47054;39.716;2.904;2023-02-26T08:40:19;98870.81;;;16.66
61189;BMP280;47054;39.716;2.904;2023-02-26T08:43:04;98868.16;;;16.62
61189;BMP280;47054;39.716;2.904;2023-02-26T08:45:52;98875.00;;;16.67
61189;BMP280;47054;39.716;2.904;2023-02-26T08:48:37;98883.44;;;16.65
61189;BMP280;47054;39.716;2.904;2023-02-26T08:51:22;98871.19;;;16.64
61189;BMP280;47054;39.716;2.904;2023-02-26T08:54:06;98873.88;;;16.64
61189;BMP280;47054;39.716;2.904;2023-02-26T08:56:52;98870.81;;;16.62
61189;BMP280;47054;39.716;2.904;2023-02-26T08:59:39;98881.91;;;16.64
61189;BMP280;47054;39.716;2.904;2023-02-26T09:02:25;98875.00;;;16.63
61189;BMP280;47054;39.716;2.904;2023-02-26T09:05:09;98888.03;;;16.65
61189;BMP280;47054;39.716;2.904;2023-02-26T09:07:55;98883.81;;;16.64
61189;BMP280;47054;39.716;2.904;2023-02-26T09:10:40;98883.03;;;16.63
61189;BMP280;47054;39.716;2.904;2023-02-26T09:13:26;98875.44;;;16.62
61189;BMP280;47054;39.716;2.904;2023-02-26T09:16:11;98861.28;;;16.58
61189;BMP280;47054;39.716;2.904;2023-02-26T09:18:56;98864.75;;;16.62
61189;BMP280;47054;39.716;2.904;2023-02-26T09:21:41;98867.41;;;16.62
61189;BMP280;47054;39.716;2.904;2023-02-26T09:24:25;98863.97;;;16.61
61189;BMP280;47054;39.716;2.904;2023-02-26T09:27:10;98868.19;;;16.59
61189;BMP280;47054;39.716;2.904;2023-02-26T09:29:54;98863.19;;;16.61
61189;BMP280;47054;39.716;2.904;2023-02-26T09:32:39;98866.25;;;16.59
61189;BMP280;47054;39.716;2.904;2023-02-26T09:35:24;98856.34;;;16.56
61189;BMP280;47054;39.716;2.904;2023-02-26T09:38:09;98869.31;;;16.61
61189;BMP280;47054;39.716;2.904;2023-02-26T09:41:00;98867.41;;;16.62
61189;BMP280;47054;39.716;2.904;2023-02-26T09:46:52;98858.63;;;16.61
61189;BMP280;47054;39.716;2.904;2023-02-26T09:52:49;98857.81;;;16.64
61189;BMP280;47054;39.716;2.904;2023-02-26T09:55:39;98865.09;;;16.60
61189;BMP280;47054;39.716;2.904;2023-02-26T09:58:36;98868.16;;;16.62
61189;BMP280;47054;39.716;2.904;2023-02-26T10:01:26;98866.22;;;16.66
61189;BMP280;47054;39.716;2.904;2023-02-26T10:07:30;98868.50;;;16.68
61189;BMP280;47054;39.716;2.904;2023-02-26T10:13:36;98870.06;;;16.65
61189;BMP280;47054;39.716;2.904;2023-02-26T10:16:26;98872.69;;;16.69
61189;BMP280;47054;39.716;2.904;2023-02-26T10:19:15;98872.31;;;16.70
61189;BMP280;47054;39.716;2.904;2023-02-26T10:22:53;98869.63;;;16.70
61189;BMP280;47054;39.716;2.904;2023-02-26T10:25:15;98874.59;;;16.72
61189;BMP280;47054;39.716;2.904;2023-02-26T10:31:11;98865.41;;;16.73
61189;BMP280;47054;39.716;2.904;2023-02-26T10:37:03;98846.31;;;16.67
61189;BMP280;47054;39.716;2.904;2023-02-26T10:43:00;98855.09;;;16.71
61189;BMP280;47054;39.716;2.904;2023-02-26T10:49:22;98853.53;;;16.74
61189;BMP280;47054;39.716;2.904;2023-02-26T10:52:38;98855.44;;;16.73
61189;BMP280;47054;39.716;2.904;2023-02-26T10:55:43;98856.97;;;16.74
61189;BMP280;47054;39.716;2.904;2023-02-26T10:58:28;98844.75;;;16.73
61189;BMP280;47054;39.716;2.904;2023-02-26T11:01:16;98839.03;;;16.75
61189;BMP280;47054;39.716;2.904;2023-02-26T11:04:12;98853.94;;;16.76
61189;BMP280;47054;39.716;2.904;2023-02-26T11:07:02;98835.97;;;16.76
61189;BMP280;47054;39.716;2.904;2023-02-26T11:09:49;98840.56;;;16.76
61189;BMP280;47054;39.716;2.904;2023-02-26T11:12:35;98830.97;;;16.78
61189;BMP280;47054;39.716;2.904;2023-02-26T11:15:22;98841.28;;;16.80
61189;BMP280;47054;39.716;2.904;2023-02-26T11:18:13;98831.72;;;16.79
61189;BMP280;47054;39.716;2.904;2023-02-26T11:21:03;98823.34;;;16.77
61189;BMP280;47054;39.716;2.904;2023-02-26T11:23:51;98827.50;;;16.81
61189;BMP280;47054;39.716;2.904;2023-02-26T11:26:38;98810.38;;;16.68
61189;BMP280;47054;39.716;2.904;2023-02-26T11:29:25;98811.13;;;16.72
61189;BMP280;47054;39.716;2.904;2023-02-26T11:32:22;98829.00;;;16.82
61189;BMP280;47054;39.716;2.904;2023-02-26T11:35:08;98809.94;;;16.77
61189;BMP280;47054;39.716;2.904;2023-02-26T11:37:57;98816.41;;;16.83
61189;BMP280;47054;39.716;2.904;2023-02-26T11:40:46;98809.88;;;16.84
61189;BMP280;47054;39.716;2.904;2023-02-26T11:43:44;98807.19;;;16.84
61189;BMP280;47054;39.716;2.904;2023-02-26T11:46:37;98798.44;;;16.83
61189;BMP280;47054;39.716;2.904;2023-02-26T11:49:26;98788.50;;;16.80
61189;BMP280;47054;39.716;2.904;2023-02-26T11:52:19;98794.22;;;16.86
61189;BMP280;47054;39.716;2.904;2023-02-26T11:55:17;98783.91;;;16.81
61189;BMP280;47054;39.716;2.904;2023-02-26T11:58:09;98784.28;;;16.83
61189;BMP280;47054;39.716;2.904;2023-02-26T12:01:01;98781.19;;;16.84
61189;BMP280;47054;39.716;2.904;2023-02-26T12:03:47;98777.75;;;16.87
61189;BMP280;47054;39.716;2.904;2023-02-26T12:06:32;98773.13;;;16.88
61189;BMP280;47054;39.716;2.904;2023-02-26T12:09:17;98778.88;;;16.90
61189;BMP280;47054;39.716;2.904;2023-02-26T12:15:18;98761.66;;;16.91
61189;BMP280;47054;39.716;2.904;2023-02-26T12:33:13;98731.03;;;16.95
61189;BMP280;47054;39.716;2.904;2023-02-26T12:58:03;98716.91;;;16.91
61189;BMP280;47054;39.716;2.904;2023-02-26T13:15:47;98705.84;;;16.89
61189;BMP280;47054;39.716;2.904;2023-02-26T13:25:01;98693.22;;;16.90
61189;BMP280;47054;39.716;2.904;2023-02-26T13:27:49;98693.97;;;16.90
61189;BMP280;47054;39.716;2.904;2023-02-26T13:30:43;98700.44;;;16.93
61189;BMP280;47054;39.716;2.904;2023-02-26T13:33:30;98702.75;;;16.91
61189;BMP280;47054;39.716;2.904;2023-02-26T13:36:18;98707.25;;;16.97
61189;BMP280;47054;39.716;2.904;2023-02-26T13:45:35;98708.72;;;17.05
61189;BMP280;47054;39.716;2.904;2023-02-26T13:51:32;98716.72;;;17.09
61189;BMP280;47054;39.716;2.904;2023-02-26T13:57:33;98706.28;;;17.18
61189;BMP280;47054;39.716;2.904;2023-02-26T14:00:32;98706.00;;;17.13
61189;BMP280;47054;39.716;2.904;2023-02-26T14:06:36;98712.78;;;17.21
61189;BMP280;47054;39.716;2.904;2023-02-26T14:17:59;98712.38;;;17.22
61189;BMP280;47054;39.716;2.904;2023-02-26T14:20:44;98721.16;;;17.23
61189;BMP280;47054;39.716;2.904;2023-02-26T14:23:34;98723.84;;;17.23
61189;BMP280;47054;39.716;2.904;2023-02-26T14:26:20;98719.66;;;17.22
61189;BMP280;47054;39.716;2.904;2023-02-26T14:29:06;98719.25;;;17.23
61189;BMP280;47054;39.716;2.904;2023-02-26T14:34:55;98721.59;;;17.21
61189;BMP280;47054;39.716;2.904;2023-02-26T14:37:48;98728.84;;;17.21
61189;BMP280;47054;39.716;2.904;2023-02-26T14:40:38;98743.00;;;17.21
61189;BMP280;47054;39.716;2.904;2023-02-26T14:43:36;98736.13;;;17.20
61189;BMP280;47054;39.716;2.904;2023-02-26T14:46:21;98736.50;;;17.19
61189;BMP280;47054;39.716;2.904;2023-02-26T14:49:14;98728.50;;;17.15
61189;BMP280;47054;39.716;2.904;2023-02-26T15:07:40;98759.53;;;17.13
61189;BMP280;47054;39.716;2.904;2023-02-26T15:20:14;98769.50;;;17.08
61189;BMP280;47054;39.716;2.904;2023-02-26T15:25:52;98750.56;;;16.92
61189;BMP280;47054;39.716;2.904;2023-02-26T15:28:40;98780.66;;;17.07
61189;BMP280;47054;39.716;2.904;2023-02-26T15:31:39;98773.75;;;17.06
61189;BMP280;47054;39.716;2.904;2023-02-26T15:34:25;98777.97;;;17.07
61189;BMP280;47054;39.716;2.904;2023-02-26T15:37:20;98778.72;;;17.07
61189;BMP280;47054;39.716;2.904;2023-02-26T15:40:06;98779.50;;;17.04
61189;BMP280;47054;39.716;2.904;2023-02-26T15:42:53;98788.69;;;17.07
61189;BMP280;47054;39.716;2.904;2023-02-26T15:45:39;98787.16;;;17.06
61189;BMP280;47054;39.716;2.904;2023-02-26T15:48:36;98789.09;;;17.02
61189;BMP280;47054;39.716;2.904;2023-02-26T15:51:22;98795.56;;;17.04
61189;BMP280;47054;39.716;2.904;2023-02-26T15:54:06;98798.22;;;17.04
61189;BMP280;47054;39.716;2.904;2023-02-26T15:56:51;98803.59;;;17.04
61189;BMP280;47054;39.716;2.904;2023-02-26T15:59:47;98815.06;;;17.05
61189;BMP280;47054;39.716;2.904;2023-02-26T16:02:32;98804.00;;;17.03
61189;BMP280;47054;39.716;2.904;2023-02-26T16:05:19;98814.75;;;16.99
61189;BMP280;47054;39.716;2.904;2023-02-26T16:08:04;98819.31;;;17.02
61189;BMP280;47054;39.716;2.904;2023-02-26T16:10:50;98827.34;;;17.02
61189;BMP280;47054;39.716;2.904;2023-02-26T16:13:38;98825.06;;;16.97
61189;BMP280;47054;39.716;2.904;2023-02-26T16:16:27;98852.59;;;17.01
61189;BMP280;47054;39.716;2.904;2023-02-26T16:19:34;98844.19;;;16.99
61189;BMP280;47054;39.716;2.904;2023-02-26T16:22:24;98838.44;;;17.01
61189;BMP280;47054;39.716;2.904;2023-02-26T16:25:19;98843.78;;;17.01
61189;BMP280;47054;39.716;2.904;2023-02-26T16:28:23;98851.44;;;16.99
61189;BMP280;47054;39.716;2.904;2023-02-26T16:31:19;98852.22;;;16.99
61189;BMP280;47054;39.716;2.904;2023-02-26T16:34:21;98844.56;;;16.98
61189;BMP280;47054;39.716;2.904;2023-02-26T16:37:33;98849.56;;;16.96
61189;BMP280;47054;39.716;2.904;2023-02-26T16:40:22;98848.03;;;16.95
61189;BMP280;47054;39.716;2.904;2023-02-26T16:46:16;98849.22;;;16.90
61189;BMP280;47054;39.716;2.904;2023-02-26T16:49:21;98853.03;;;16.93
61189;BMP280;47054;39.716;2.904;2023-02-26T16:52:14;98859.16;;;16.93
61189;BMP280;47054;39.716;2.904;2023-02-26T16:55:02;98855.31;;;16.94
61189;BMP280;47054;39.716;2.904;2023-02-26T16:57:49;98853.41;;;16.95
61189;BMP280;47054;39.716;2.904;2023-02-26T17:00:34;98843.88;;;16.90
61189;BMP280;47054;39.716;2.904;2023-02-26T17:03:23;98857.97;;;16.94
61189;BMP280;47054;39.716;2.904;2023-02-26T17:06:09;98867.53;;;16.95
61189;BMP280;47054;39.716;2.904;2023-02-26T17:08:59;98868.31;;;16.96
61189;BMP280;47054;39.716;2.904;2023-02-26T17:11:43;98873.28;;;16.94
61189;BMP280;47054;39.716;2.904;2023-02-26T17:14:36;98876.34;;;16.96
61189;BMP280;47054;39.716;2.904;2023-02-26T17:17:24;98880.56;;;16.93
61189;BMP280;47054;39.716;2.904;2023-02-26T17:20:10;98881.75;;;16.92
61189;BMP280;47054;39.716;2.904;2023-02-26T17:22:56;98876.38;;;16.92
61189;BMP280;47054;39.716;2.904;2023-02-26T17:25:44;98882.47;;;16.96
61189;BMP280;47054;39.716;2.904;2023-02-26T17:28:32;98886.25;;;16.99
61189;BMP280;47054;39.716;2.904;2023-02-26T17:31:19;98891.59;;;16.99
61189;BMP280;47054;39.716;2.904;2023-02-26T17:34:05;98888.94;;;16.99
61189;BMP280;47054;39.716;2.904;2023-02-26T17:36:49;98885.88;;;17.00
61189;BMP280;47054;39.716;2.904;2023-02-26T17:39:34;98898.88;;;17.02
61189;BMP280;47054;39.716;2.904;2023-02-26T17:42:19;98898.47;;;17.03
61189;BMP280;47054;39.716;2.904;2023-02-26T17:45:05;98905.31;;;17.04
61189;BMP280;47054;39.716;2.904;2023-02-26T17:47:49;98905.31;;;17.04
61189;BMP280;47054;39.716;2.904;2023-02-26T17:53:25;98917.19;;;17.07
61189;BMP280;47054;39.716;2.904;2023-02-26T17:56:26;98915.25;;;17.11
61189;BMP280;47054;39.716;2.904;2023-02-26T17:59:11;98934.00;;;17.11
61189;BMP280;47054;39.716;2.904;2023-02-26T18:01:56;98931.66;;;17.13
61189;BMP280;47054;39.716;2.904;2023-02-26T18:04:40;98931.66;;;17.13
61189;BMP280;47054;39.716;2.904;2023-02-26T18:07:25;98941.25;;;17.14
61189;BMP280;47054;39.716;2.904;2023-02-26T18:10:20;98950.41;;;17.17
61189;BMP280;47054;39.716;2.904;2023-02-26T18:13:05;98944.28;;;17.16
61189;BMP280;47054;39.716;2.904;2023-02-26T18:16:27;98950.78;;;17.15
61189;BMP280;47054;39.716;2.904;2023-02-26T18:19:13;98966.13;;;17.07
61189;BMP280;47054;39.716;2.904;2023-02-26T18:21:58;98958.09;;;17.07
61189;BMP280;47054;39.716;2.904;2023-02-26T18:24:43;98969.16;;;17.13
61189;BMP280;47054;39.716;2.904;2023-02-26T18:27:28;98973.00;;;17.12
61189;BMP280;47054;39.716;2.904;2023-02-26T18:30:20;98981.00;;;17.16
61189;BMP280;47054;39.716;2.904;2023-02-26T18:33:06;98992.13;;;17.14
61189;BMP280;47054;39.716;2.904;2023-02-26T18:35:53;98998.19;;;17.18
61189;BMP280;47054;39.716;2.904;2023-02-26T18:38:39;99005.47;;;17.18
61189;BMP280;47054;39.716;2.904;2023-02-26T18:41:24;98998.94;;;17.19
61189;BMP280;47054;39.716;2.904;2023-02-26T18:44:10;99013.13;;;17.19
61189;BMP280;47054;39.716;2.904;2023-02-26T18:46:54;99022.69;;;17.20
61189;BMP280;47054;39.716;2.904;2023-02-26T18:49:39;99016.19;;;17.18
61189;BMP280;47054;39.716;2.904;2023-02-26T18:52:24;99017.72;;;17.15
61189;BMP280;47054;39.716;2.904;2023-02-26T18:55:12;99027.63;;;17.18
61189;BMP280;47054;39.716;2.904;2023-02-26T18:57:58;99033.00;;;17.22
61189;BMP280;47054;39.716;2.904;2023-02-26T19:00:43;99033.78;;;17.22
61189;BMP280;47054;39.716;2.904;2023-02-26T19:03:28;99021.53;;;17.18
61189;BMP280;47054;39.716;2.904;2023-02-26T19:06:12;99045.22;;;17.23
61189;BMP280;47054;39.716;2.904;2023-02-26T19:08:57;99038.34;;;17.18
61189;BMP280;47054;39.716;2.904;2023-02-26T19:11:46;99041.44;;;17.20
61189;BMP280;47054;39.716;2.904;2023-02-26T19:14:31;99052.13;;;17.24
61189;BMP280;47054;39.716;2.904;2023-02-26T19:17:15;99055.94;;;17.23
61189;BMP280;47054;39.716;2.904;2023-02-26T19:20:00;99065.13;;;17.22
61189;BMP280;47054;39.716;2.904;2023-02-26T19:22:44;99070.50;;;17.22
61189;BMP280;47054;39.716;2.904;2023-02-26T19:25:29;99074.34;;;17.21